Time;durP1;ratioP1;P1;durP2;ratioP2;P2;SDS_P1;SDS_P2;PMS_P1;PMS_P2;Temp;Humidity;BMP_temperature;BMP_pressure;BME280_temperature;BME280_humidity;BME280_pressure;Samples;Min_cycle;Max_cycle;Signal;HPM_P1;HPM_P2
2024/02/03 00:01:45;;;;;;;2.47;2.27;;;14.10;44.80;;;;;;5006402;28;20238;-60
2024/02/03 00:04:11;;;;;;;3.40;2.20;;;14.00;45.10;;;;;;5008183;28;20757;-60
2024/02/03 00:06:36;;;;;;;2.50;2.30;;;13.90;45.40;;;;;;5009610;28;20194;-57
2024/02/03 00:09:05;;;;;;;2.40;2.20;;;13.80;45.30;;;;;;5010833;28;20677;-59
2024/02/03 00:11:31;;;;;;;2.67;2.37;;;13.70;45.60;;;;;;5009145;28;20190;-60
2024/02/03 00:13:57;;;;;;;4.50;2.17;;;13.70;45.60;;;;;;5008644;28;20484;-60
2024/02/03 00:16:23;;;;;;;2.47;2.20;;;13.60;45.80;;;;;;5008342;28;20970;-56
2024/02/03 00:18:49;;;;;;;2.97;2.10;;;13.60;46.00;;;;;;5010207;28;20417;-58
2024/02/03 00:21:15;;;;;;;2.57;2.10;;;13.50;45.90;;;;;;5010038;28;20482;-60
2024/02/03 00:23:46;;;;;;;2.70;2.40;;;13.50;45.90;;;;;;5010386;28;20435;-57
2024/02/03 00:26:12;;;;;;;2.77;2.50;;;13.50;46.10;;;;;;5008676;28;20437;-60
2024/02/03 00:28:38;;;;;;;2.27;2.07;;;13.40;46.20;;;;;;5009819;28;20413;-62
2024/02/03 00:31:04;;;;;;;2.30;2.10;;;13.40;46.10;;;;;;5009158;28;20185;-61
2024/02/03 00:33:29;;;;;;;2.37;2.17;;;13.40;46.10;;;;;;5009551;28;20299;-62
2024/02/03 00:35:55;;;;;;;2.20;2.00;;;13.30;46.10;;;;;;5008208;28;20952;-58
2024/02/03 00:38:21;;;;;;;2.50;2.13;;;13.30;46.10;;;;;;5009307;28;20544;-59
2024/02/03 00:40:47;;;;;;;3.07;2.40;;;13.20;46.00;;;;;;5010340;28;20228;-58
2024/02/03 00:43:16;;;;;;;2.97;2.23;;;13.30;46.20;;;;;;5009240;28;20586;-61
2024/02/03 00:45:43;;;;;;;2.93;2.70;;;13.20;46.00;;;;;;5009423;28;20209;-61
2024/02/03 00:48:09;;;;;;;3.20;2.33;;;13.20;46.00;;;;;;5009101;28;20778;-58
2024/02/03 00:50:34;;;;;;;2.33;1.90;;;13.20;46.20;;;;;;5010178;28;20409;-58
2024/02/03 00:53:00;;;;;;;2.60;2.20;;;13.20;46.40;;;;;;5008027;28;20194;-60
2024/02/03 00:55:26;;;;;;;1.80;1.70;;;13.10;46.40;;;;;;5009006;28;20273;-61
2024/02/03 00:57:51;;;;;;;3.10;2.63;;;13.00;46.70;;;;;;5008899;28;20194;-62
2024/02/03 01:00:17;;;;;;;3.80;3.40;;;13.00;46.60;;;;;;5010101;28;20181;-56
2024/02/03 01:02:43;;;;;;;2.43;2.10;;;12.90;46.70;;;;;;5008248;28;20191;-59
2024/02/03 01:05:09;;;;;;;2.70;2.43;;;12.80;46.60;;;;;;5007360;28;20449;-62
2024/02/03 01:07:35;;;;;;;2.00;1.90;;;12.70;46.70;;;;;;5004025;28;20463;-59
2024/02/03 01:10:00;;;;;;;2.80;2.33;;;12.60;46.90;;;;;;5008432;28;20248;-61
2024/02/03 01:12:26;;;;;;;2.50;2.27;;;12.50;47.00;;;;;;5008222;28;20193;-61
2024/02/03 01:14:52;;;;;;;2.57;2.10;;;12.40;47.30;;;;;;5005270;28;20321;-61
2024/02/03 01:17:18;;;;;;;4.27;2.30;;;12.40;47.70;;;;;;5004115;28;20209;-56
2024/02/03 01:19:44;;;;;;;2.97;2.70;;;12.30;47.80;;;;;;5008492;28;20911;-57
2024/02/03 01:22:09;;;;;;;2.53;2.33;;;12.30;47.90;;;;;;5008409;28;20210;-61
2024/02/03 01:24:35;;;;;;;3.10;2.57;;;12.30;48.00;;;;;;5008399;28;20189;-59
2024/02/03 01:27:01;;;;;;;2.67;2.13;;;12.30;48.00;;;;;;5006678;28;20202;-59
2024/02/03 01:29:26;;;;;;;3.03;2.60;;;12.20;47.90;;;;;;5009016;28;20205;-61
2024/02/03 01:31:52;;;;;;;2.30;2.10;;;12.20;48.00;;;;;;5007982;28;20194;-60
2024/02/03 01:34:17;;;;;;;2.90;2.60;;;12.20;48.10;;;;;;5008228;28;20252;-56
2024/02/03 01:36:43;;;;;;;2.63;2.03;;;12.20;48.30;;;;;;5007029;28;20661;-58
2024/02/03 01:39:09;;;;;;;3.53;2.33;;;12.10;48.40;;;;;;5009282;28;20212;-60
2024/02/03 01:41:35;;;;;;;3.37;2.60;;;12.10;48.40;;;;;;5008182;28;20190;-58
2024/02/03 01:44:01;;;;;;;3.27;2.47;;;12.00;48.40;;;;;;5008449;28;20490;-61
2024/02/03 01:46:28;;;;;;;3.13;2.53;;;12.00;48.60;;;;;;5007198;28;20240;-60
2024/02/03 01:48:54;;;;;;;2.60;2.40;;;12.00;49.10;;;;;;5008540;28;20420;-60
2024/02/03 01:51:20;;;;;;;7.93;4.97;;;11.90;48.60;;;;;;5008210;28;20428;-59
2024/02/03 01:53:46;;;;;;;5.20;4.80;;;11.80;48.90;;;;;;5008660;28;20214;-59
2024/02/03 01:56:18;;;;;;;6.10;4.47;;;11.80;49.20;;;;;;5007556;28;20475;-61
2024/02/03 01:58:44;;;;;;;4.70;3.60;;;11.70;49.70;;;;;;5008754;28;20443;-59
2024/02/03 02:01:11;;;;;;;5.33;4.17;;;11.60;50.00;;;;;;5008113;28;20437;-60
2024/02/03 02:03:37;;;;;;;3.50;3.20;;;11.50;50.40;;;;;;5008726;28;20189;-60
2024/02/03 02:06:04;;;;;;;3.63;3.27;;;11.30;50.70;;;;;;5008066;28;20445;-59
2024/02/03 02:08:34;;;;;;;3.00;2.77;;;11.30;50.90;;;;;;5006732;28;20897;-60
2024/02/03 02:11:00;;;;;;;3.70;3.20;;;11.30;50.80;;;;;;5007389;28;20827;-60
2024/02/03 02:13:26;;;;;;;3.30;2.93;;;11.30;50.80;;;;;;5008218;28;20460;-57
2024/02/03 02:15:52;;;;;;;4.10;3.60;;;11.30;50.90;;;;;;5007788;28;20202;-60
2024/02/03 02:18:18;;;;;;;4.30;2.97;;;11.30;51.00;;;;;;5007401;28;20437;-59
2024/02/03 02:20:44;;;;;;;3.70;2.67;;;11.30;51.00;;;;;;5008202;28;20421;-59
2024/02/03 02:23:09;;;;;;;4.80;3.20;;;11.30;51.10;;;;;;5007496;28;20904;-58
2024/02/03 02:25:35;;;;;;;3.40;3.10;;;11.20;51.20;;;;;;5006134;28;20279;-58
2024/02/03 02:28:00;;;;;;;4.47;3.60;;;11.20;51.20;;;;;;5007153;28;20658;-58
2024/02/03 02:30:26;;;;;;;4.83;3.70;;;11.10;51.30;;;;;;5008620;28;20186;-57
2024/02/03 02:32:52;;;;;;;6.37;3.43;;;11.10;51.10;;;;;;5007976;28;20202;-61
2024/02/03 02:35:18;;;;;;;3.77;3.47;;;11.10;51.00;;;;;;5005126;28;20218;-59
2024/02/03 02:37:44;;;;;;;3.83;3.33;;;11.10;50.80;;;;;;5003959;28;20448;-60
2024/02/03 02:40:11;;;;;;;4.23;3.77;;;11.00;50.80;;;;;;5009034;28;20250;-61
2024/02/03 02:42:37;;;;;;;5.33;3.30;;;10.90;50.90;;;;;;5011677;28;20198;-57
2024/02/03 02:45:03;;;;;;;4.00;3.60;;;10.80;51.20;;;;;;5011756;28;20427;-57
2024/02/03 02:47:28;;;;;;;8.60;3.90;;;10.60;51.60;;;;;;5007480;28;20209;-60
2024/02/03 02:49:54;;;;;;;4.97;4.10;;;10.50;51.90;;;;;;5011646;28;20424;-61
2024/02/03 02:52:19;;;;;;;3.57;3.27;;;10.40;52.20;;;;;;5010837;28;20807;-62
2024/02/03 02:54:45;;;;;;;4.00;3.60;;;10.40;52.20;;;;;;5008079;28;20210;-61
2024/02/03 02:57:11;;;;;;;3.97;3.57;;;10.40;52.20;;;;;;5010047;28;20362;-61
2024/02/03 02:59:36;;;;;;;4.00;3.60;;;10.40;52.30;;;;;;5011999;28;20696;-60
2024/02/03 03:02:02;;;;;;;6.07;4.10;;;10.50;52.50;;;;;;5011216;28;20202;-60
2024/02/03 03:04:28;;;;;;;4.17;3.63;;;10.40;52.40;;;;;;5011042;28;20276;-61
2024/02/03 03:06:54;;;;;;;5.63;4.13;;;10.40;52.40;;;;;;5010211;28;20536;-61
2024/02/03 03:09:19;;;;;;;5.00;3.73;;;10.30;52.50;;;;;;5010760;28;20216;-61
2024/02/03 03:11:45;;;;;;;3.97;3.40;;;10.30;53.40;;;;;;5010708;28;20563;-62
2024/02/03 03:14:11;;;;;;;3.70;3.37;;;10.20;53.00;;;;;;5010516;28;20225;-60
2024/02/03 03:16:37;;;;;;;3.77;3.47;;;10.20;52.90;;;;;;5010315;28;20202;-61
2024/02/03 03:19:02;;;;;;;4.40;3.53;;;10.20;53.20;;;;;;5011252;28;20962;-61
2024/02/03 03:21:28;;;;;;;3.50;2.77;;;10.20;53.20;;;;;;5010681;28;20232;-60
2024/02/03 03:23:54;;;;;;;3.97;3.40;;;10.30;53.30;;;;;;5010482;28;20218;-62
2024/02/03 03:26:19;;;;;;;4.40;3.70;;;10.30;53.20;;;;;;5009869;28;20659;-59
2024/02/03 03:28:45;;;;;;;4.37;2.70;;;10.30;53.10;;;;;;5010470;28;20193;-60
2024/02/03 03:31:10;;;;;;;3.87;3.40;;;10.30;53.20;;;;;;5009894;28;20730;-60
2024/02/03 03:33:36;;;;;;;3.90;3.50;;;10.30;53.10;;;;;;5009883;28;20230;-59
2024/02/03 03:36:02;;;;;;;5.73;3.43;;;10.30;53.10;;;;;;5010298;28;20202;-60
2024/02/03 03:38:27;;;;;;;4.07;3.40;;;10.30;53.10;;;;;;5010269;28;20189;-61
2024/02/03 03:40:53;;;;;;;5.27;3.50;;;10.30;52.90;;;;;;5011060;28;20174;-61
2024/02/03 03:43:18;;;;;;;3.90;3.50;;;10.20;52.90;;;;;;5009613;28;20616;-62
2024/02/03 03:45:44;;;;;;;3.30;3.00;;;10.20;53.00;;;;;;5010166;28;20713;-61
2024/02/03 03:48:10;;;;;;;4.03;3.53;;;10.10;53.10;;;;;;5009980;28;20674;-61
2024/02/03 03:50:35;;;;;;;4.47;3.20;;;10.00;53.20;;;;;;5010078;28;20261;-59
2024/02/03 03:53:01;;;;;;;3.10;2.80;;;10.00;53.20;;;;;;5010034;28;20197;-61
2024/02/03 03:55:26;;;;;;;3.17;2.40;;;10.00;53.10;;;;;;5009755;28;20309;-60
2024/02/03 03:57:52;;;;;;;3.60;2.63;;;10.00;53.20;;;;;;5009323;28;20186;-62
2024/02/03 04:00:18;;;;;;;3.10;2.77;;;10.00;53.40;;;;;;5010181;28;20182;-58
2024/02/03 04:02:43;;;;;;;3.20;2.90;;;9.90;54.20;;;;;;5009844;28;20265;-61
2024/02/03 04:05:09;;;;;;;3.00;2.70;;;9.90;54.30;;;;;;5010123;28;20190;-59
2024/02/03 04:07:35;;;;;;;4.13;2.57;;;9.90;54.20;;;;;;5009462;28;20202;-61
2024/02/03 04:10:01;;;;;;;2.57;2.37;;;9.80;54.20;;;;;;5010934;28;20428;-61
2024/02/03 04:12:27;;;;;;;3.30;2.50;;;9.80;54.10;;;;;;5009648;28;20209;-59
2024/02/03 04:14:52;;;;;;;2.70;2.37;;;9.70;53.90;;;;;;5010089;28;20468;-60
2024/02/03 04:17:18;;;;;;;4.20;2.60;;;9.70;54.00;;;;;;5008548;28;20205;-57
2024/02/03 04:19:44;;;;;;;2.13;1.93;;;9.60;54.10;;;;;;5010195;28;20645;-60
2024/02/03 04:22:13;;;;;;;3.80;2.40;;;9.60;54.20;;;;;;5009777;28;20264;-60
2024/02/03 04:24:39;;;;;;;2.77;2.20;;;9.60;54.60;;;;;;5007551;28;20192;-59
2024/02/03 04:27:05;;;;;;;2.80;1.97;;;9.50;54.70;;;;;;5009142;28;20448;-61
2024/02/03 04:29:31;;;;;;;2.30;2.10;;;9.60;54.80;;;;;;5010188;28;20511;-59
2024/02/03 04:31:56;;;;;;;2.50;2.30;;;9.50;54.80;;;;;;5009510;28;20504;-59
2024/02/03 04:34:22;;;;;;;2.40;2.20;;;9.60;54.80;;;;;;5009107;28;20218;-59
2024/02/03 04:36:48;;;;;;;2.40;2.10;;;9.60;54.80;;;;;;5008340;28;20256;-58
2024/02/03 04:39:14;;;;;;;2.23;2.03;;;9.60;54.80;;;;;;5010254;28;20868;-60
2024/02/03 04:41:40;;;;;;;2.10;1.90;;;9.50;54.80;;;;;;5009427;28;20185;-61
2024/02/03 04:44:06;;;;;;;2.83;1.80;;;9.50;54.80;;;;;;5009656;28;20229;-59
2024/02/03 04:46:31;;;;;;;2.30;2.10;;;9.50;54.70;;;;;;5007809;28;20206;-61
2024/02/03 04:48:57;;;;;;;2.00;1.80;;;9.50;54.80;;;;;;5009404;28;20197;-61
2024/02/03 04:51:23;;;;;;;2.33;1.97;;;9.50;54.80;;;;;;5005371;28;20560;-58
2024/02/03 04:53:48;;;;;;;6.03;1.93;;;9.30;54.90;;;;;;5009540;28;20755;-59
2024/02/03 04:56:14;;;;;;;2.30;1.73;;;9.30;55.20;;;;;;5007638;28;20236;-59
2024/02/03 04:58:39;;;;;;;5.40;2.27;;;9.30;55.20;;;;;;5007371;28;20232;-59
2024/02/03 05:01:05;;;;;;;4.27;2.67;;;9.30;55.20;;;;;;5006365;28;20658;-60
2024/02/03 05:03:32;;;;;;;4.40;2.17;;;9.30;55.10;;;;;;5008163;28;20622;-59
2024/02/03 05:06:03;;;;;;;2.43;2.23;;;9.30;55.20;;;;;;5007723;28;20285;-59
2024/02/03 05:08:29;;;;;;;2.67;2.47;;;9.20;55.30;;;;;;5007746;28;20472;-60
2024/02/03 05:10:54;;;;;;;2.70;2.50;;;9.20;55.40;;;;;;5009400;28;20873;-59
2024/02/03 05:13:20;;;;;;;2.83;1.80;;;9.20;55.30;;;;;;5008774;28;20476;-58
2024/02/03 05:15:45;;;;;;;3.43;2.50;;;9.20;55.30;;;;;;5007874;28;20202;-61
2024/02/03 05:18:11;;;;;;;2.53;2.23;;;9.10;55.20;;;;;;5005414;28;20185;-60
2024/02/03 05:20:36;;;;;;;3.00;2.70;;;9.10;55.20;;;;;;5008746;28;20244;-57
2024/02/03 05:23:02;;;;;;;2.30;2.10;;;9.10;55.40;;;;;;5008359;28;20201;-59
2024/02/03 05:25:27;;;;;;;3.90;2.60;;;9.10;55.40;;;;;;5007890;28;20181;-60
2024/02/03 05:27:53;;;;;;;5.83;2.30;;;9.00;55.40;;;;;;5004930;28;20181;-59
2024/02/03 05:30:19;;;;;;;2.30;2.10;;;9.00;55.50;;;;;;5008322;28;20190;-58
2024/02/03 05:32:44;;;;;;;2.83;2.40;;;8.90;55.40;;;;;;5007647;28;20691;-59
2024/02/03 05:35:10;;;;;;;2.20;1.97;;;8.90;55.40;;;;;;5008024;28;20241;-59
2024/02/03 05:37:35;;;;;;;2.63;2.40;;;8.90;55.70;;;;;;5007333;28;20216;-58
2024/02/03 05:40:03;;;;;;;2.40;2.00;;;8.90;55.90;;;;;;5009356;28;20220;-59
2024/02/03 05:42:29;;;;;;;3.07;2.40;;;8.90;56.00;;;;;;5007420;28;20673;-60
2024/02/03 05:44:58;;;;;;;3.40;2.00;;;8.90;56.10;;;;;;5009272;28;20429;-58
2024/02/03 05:47:25;;;;;;;2.70;2.50;;;8.80;56.10;;;;;;5007797;28;20850;-58
2024/02/03 05:49:51;;;;;;;4.33;2.30;;;8.80;56.10;;;;;;5009551;28;20859;-56
2024/02/03 05:52:16;;;;;;;3.00;2.67;;;8.80;56.10;;;;;;5008439;28;20437;-58
2024/02/03 05:54:42;;;;;;;3.30;2.80;;;8.80;56.10;;;;;;5008683;28;20206;-58
2024/02/03 05:57:12;;;;;;;3.27;2.63;;;8.80;56.10;;;;;;5007956;28;20684;-57
2024/02/03 05:59:37;;;;;;;4.77;3.50;;;8.80;56.20;;;;;;5004776;28;20593;-57
2024/02/03 06:02:03;;;;;;;2.90;2.33;;;8.80;56.20;;;;;;5008357;28;20515;-55
2024/02/03 06:04:29;;;;;;;3.37;3.00;;;8.80;56.20;;;;;;5008440;28;20269;-58
2024/02/03 06:06:54;;;;;;;2.70;2.20;;;8.80;56.10;;;;;;5007891;28;20554;-59
2024/02/03 06:09:20;;;;;;;2.10;1.90;;;8.80;56.20;;;;;;5009041;28;20190;-57
2024/02/03 06:11:45;;;;;;;2.70;2.47;;;8.80;56.20;;;;;;5008362;28;20186;-56
2024/02/03 06:14:11;;;;;;;2.30;2.10;;;8.80;56.40;;;;;;5012280;28;20675;-61
2024/02/03 06:16:37;;;;;;;3.27;2.70;;;8.80;56.60;;;;;;5010823;28;20682;-57
2024/02/03 06:19:02;;;;;;;2.63;2.43;;;8.80;56.90;;;;;;5012883;28;20202;-58
2024/02/03 06:21:28;;;;;;;4.53;3.43;;;8.80;57.00;;;;;;5011960;28;20201;-59
2024/02/03 06:23:53;;;;;;;3.67;3.33;;;8.90;57.50;;;;;;5012211;28;20190;-58
2024/02/03 06:26:19;;;;;;;3.73;3.37;;;8.90;58.50;;;;;;5011467;28;20198;-58
2024/02/03 06:28:44;;;;;;;4.30;3.90;;;9.10;59.20;;;;;;5012647;28;20222;-61
2024/02/03 06:31:11;;;;;;;9.57;4.20;;;9.10;61.70;;;;;;5012144;28;20194;-61
2024/02/03 06:33:36;;;;;;;4.53;3.70;;;9.30;62.80;;;;;;5008187;28;20232;-60
2024/02/03 06:36:02;;;;;;;5.53;4.27;;;9.60;62.90;;;;;;5011713;28;20440;-60
2024/02/03 06:38:28;;;;;;;6.30;5.33;;;9.90;62.50;;;;;;5009813;28;20188;-60
2024/02/03 06:40:55;;;;;;;7.00;4.67;;;10.20;61.30;;;;;;5008661;28;20190;-62
2024/02/03 06:43:20;;;;;;;5.23;4.30;;;10.50;60.90;;;;;;5008918;28;20494;-60
2024/02/03 06:45:46;;;;;;;8.10;5.37;;;10.70;59.30;;;;;;5011212;28;20437;-61
2024/02/03 06:48:11;;;;;;;5.67;5.00;;;10.80;59.10;;;;;;5010942;28;20236;-62
2024/02/03 06:50:37;;;;;;;6.23;5.37;;;10.90;59.40;;;;;;5007057;28;20178;-61
2024/02/03 06:53:03;;;;;;;7.60;5.93;;;11.00;59.70;;;;;;5009084;28;20605;-58
2024/02/03 06:55:28;;;;;;;7.40;5.97;;;11.00;60.80;;;;;;5009775;28;20279;-61
2024/02/03 06:57:54;;;;;;;7.93;7.13;;;10.90;62.40;;;;;;5009210;28;20280;-58
2024/02/03 07:00:20;;;;;;;7.87;6.73;;;10.90;64.00;;;;;;5011312;28;20213;-61
2024/02/03 07:02:45;;;;;;;7.87;6.90;;;10.90;65.30;;;;;;5010406;28;20186;-60
2024/02/03 07:05:11;;;;;;;9.60;6.97;;;10.60;67.10;;;;;;5011118;28;21013;-60
2024/02/03 07:07:36;;;;;;;10.30;8.47;;;10.80;67.60;;;;;;5007420;28;20280;-60
2024/02/03 07:10:02;;;;;;;9.40;7.30;;;10.80;68.20;;;;;;5011282;28;20182;-59
2024/02/03 07:12:28;;;;;;;7.10;6.20;;;10.80;68.60;;;;;;5011345;28;20194;-60
2024/02/03 07:14:53;;;;;;;9.17;7.20;;;10.90;68.60;;;;;;5010423;28;20217;-63
2024/02/03 07:17:19;;;;;;;8.13;7.13;;;10.80;68.90;;;;;;5008914;28;20201;-61
2024/02/03 07:19:45;;;;;;;7.23;6.43;;;10.80;69.40;;;;;;5011763;28;20180;-59
2024/02/03 07:22:10;;;;;;;9.80;7.00;;;10.80;70.10;;;;;;5007975;28;20182;-60
2024/02/03 07:24:39;;;;;;;8.63;5.90;;;11.00;69.60;;;;;;5008014;28;20253;-61
2024/02/03 07:27:05;;;;;;;8.63;7.13;;;11.00;69.90;;;;;;5008294;28;20709;-59
2024/02/03 07:29:31;;;;;;;8.87;7.17;;;11.10;69.80;;;;;;5006070;28;20430;-61
2024/02/03 07:32:00;;;;;;;7.90;6.20;;;11.40;68.90;;;;;;5008857;28;20453;-61
2024/02/03 07:34:26;;;;;;;8.50;6.77;;;11.60;67.90;;;;;;5010131;28;20226;-61
2024/02/03 07:36:52;;;;;;;8.63;6.83;;;11.50;68.40;;;;;;5024279;28;20482;-63
2024/02/03 07:39:18;;;;;;;6.60;5.97;;;11.50;69.00;;;;;;5011415;28;20428;-61
2024/02/03 07:41:43;;;;;;;7.20;5.70;;;11.50;70.00;;;;;;5010750;28;20193;-59
2024/02/03 07:44:09;;;;;;;6.93;6.23;;;11.90;68.80;;;;;;5010818;28;20698;-60
2024/02/03 07:46:34;;;;;;;6.80;5.73;;;12.20;67.00;;;;;;5008799;28;20240;-60
2024/02/03 07:49:00;;;;;;;6.80;5.60;;;12.40;66.20;;;;;;5010525;28;20229;-62
2024/02/03 07:51:25;;;;;;;7.60;6.00;;;12.80;65.90;;;;;;5010630;28;20317;-61
2024/02/03 07:53:51;;;;;;;6.30;5.57;;;13.20;63.40;;;;;;5010966;28;20244;-61
2024/02/03 07:56:17;;;;;;;6.67;6.00;;;13.40;62.60;;;;;;5009892;28;20617;-63
2024/02/03 07:58:42;;;;;;;5.27;4.77;;;13.70;61.70;;;;;;5010860;28;20189;-60
2024/02/03 08:01:08;;;;;;;7.30;5.77;;;13.80;61.00;;;;;;5009624;28;20194;-62
2024/02/03 08:03:33;;;;;;;8.90;6.83;;;13.80;60.20;;;;;;5008872;28;20240;-62
2024/02/03 08:06:02;;;;;;;9.60;6.13;;;13.80;60.60;;;;;;5010262;28;20194;-60
2024/02/03 08:08:27;;;;;;;6.13;5.50;;;13.80;60.30;;;;;;5010357;28;20182;-61
2024/02/03 08:10:53;;;;;;;7.07;5.97;;;13.90;60.10;;;;;;5010972;28;20412;-59
2024/02/03 08:13:18;;;;;;;9.37;6.13;;;14.20;59.70;;;;;;5010370;28;20711;-60
2024/02/03 08:15:44;;;;;;;10.10;5.90;;;14.30;59.30;;;;;;5009176;28;20201;-61
2024/02/03 08:18:09;;;;;;;6.10;5.50;;;14.50;58.50;;;;;;5009743;28;20185;-61
2024/02/03 08:20:35;;;;;;;7.60;6.30;;;14.70;58.50;;;;;;5010701;28;20182;-62
2024/02/03 08:23:01;;;;;;;7.10;5.33;;;14.60;57.70;;;;;;5008455;28;20189;-62
2024/02/03 08:25:26;;;;;;;6.80;6.10;;;14.60;57.50;;;;;;5008994;28;20209;-63
2024/02/03 08:27:52;;;;;;;7.20;6.50;;;14.50;57.60;;;;;;5009089;28;20190;-62
2024/02/03 08:30:17;;;;;;;7.27;6.53;;;14.30;57.80;;;;;;5009306;28;20221;-60
2024/02/03 08:32:43;;;;;;;7.37;6.67;;;14.20;58.00;;;;;;5008751;28;20186;-59
2024/02/03 08:35:08;;;;;;;7.10;6.10;;;14.10;58.80;;;;;;5009461;28;20317;-62
2024/02/03 08:37:34;;;;;;;7.97;6.93;;;13.90;58.60;;;;;;5008321;28;20197;-63
2024/02/03 08:40:00;;;;;;;6.60;5.90;;;13.80;58.90;;;;;;5009679;28;20913;-61
2024/02/03 08:42:25;;;;;;;6.77;6.10;;;13.80;58.90;;;;;;5007917;28;20736;-59
2024/02/03 08:44:51;;;;;;;8.60;6.70;;;13.70;59.00;;;;;;5007334;28;20196;-62
2024/02/03 08:47:16;;;;;;;7.30;5.77;;;13.70;59.10;;;;;;5008203;28;20237;-61
2024/02/03 08:49:52;;;;;;;6.07;5.57;;;13.50;59.30;;;;;;5010560;28;20189;-60
2024/02/03 08:52:18;;;;;;;8.00;7.17;;;13.40;59.80;;;;;;5007157;28;20219;-60
2024/02/03 08:54:44;;;;;;;6.70;6.00;;;13.30;60.30;;;;;;5007119;28;20500;-62
2024/02/03 08:57:10;;;;;;;7.10;6.40;;;13.30;60.30;;;;;;5008163;28;20297;-62
2024/02/03 08:59:35;;;;;;;6.57;5.70;;;13.30;60.60;;;;;;5008799;28;21035;-62
2024/02/03 09:02:01;;;;;;;7.03;5.90;;;13.30;60.60;;;;;;5007260;28;20603;-62
2024/02/03 09:04:27;;;;;;;6.87;5.53;;;13.30;60.40;;;;;;5009221;28;20590;-61
2024/02/03 09:06:52;;;;;;;8.13;7.00;;;13.30;60.80;;;;;;5008936;28;20198;-63
2024/02/03 09:09:18;;;;;;;6.30;5.60;;;13.30;61.30;;;;;;5009610;28;20968;-61
2024/02/03 09:11:44;;;;;;;5.97;4.80;;;13.40;61.20;;;;;;5009349;28;20182;-61
2024/02/03 09:14:10;;;;;;;5.60;5.00;;;13.30;61.80;;;;;;5007337;28;20280;-62
2024/02/03 09:16:36;;;;;;;6.73;4.53;;;13.10;62.80;;;;;;5007644;28;20464;-63
2024/02/03 09:19:01;;;;;;;4.90;4.40;;;12.90;63.70;;;;;;5009948;28;20189;-62
2024/02/03 09:21:27;;;;;;;5.40;4.90;;;12.80;64.70;;;;;;5009348;28;20666;-62
2024/02/03 09:23:53;;;;;;;5.50;4.80;;;12.90;64.50;;;;;;5008644;28;20190;-61
2024/02/03 09:26:18;;;;;;;5.23;4.70;;;12.90;64.40;;;;;;5004839;28;20213;-61
2024/02/03 09:28:44;;;;;;;6.20;4.77;;;13.00;64.80;;;;;;5008442;28;20194;-60
2024/02/03 09:31:17;;;;;;;4.30;3.90;;;12.90;64.70;;;;;;5008361;28;20200;-60
2024/02/03 09:33:43;;;;;;;4.43;3.90;;;12.80;65.30;;;;;;5000090;28;20829;-62
2024/02/03 09:36:08;;;;;;;3.40;3.00;;;12.70;65.70;;;;;;5013172;28;20529;-63
2024/02/03 09:38:34;;;;;;;4.60;3.47;;;12.80;65.60;;;;;;5003866;28;20193;-62
2024/02/03 09:41:00;;;;;;;3.50;3.20;;;12.80;65.70;;;;;;5001451;28;20190;-62
2024/02/03 09:43:25;;;;;;;3.47;3.17;;;12.80;65.60;;;;;;5006243;28;20205;-63
2024/02/03 09:45:52;;;;;;;4.00;2.80;;;12.70;66.30;;;;;;5008901;28;20212;-66
2024/02/03 09:48:17;;;;;;;4.20;3.20;;;12.90;65.70;;;;;;5011345;28;20197;-64
2024/02/03 09:50:43;;;;;;;3.40;3.10;;;13.00;65.40;;;;;;5010799;28;20437;-61
2024/02/03 09:53:10;;;;;;;6.70;3.67;;;12.90;65.60;;;;;;5007772;28;20189;-64
2024/02/03 09:55:36;;;;;;;4.70;3.77;;;13.00;65.50;;;;;;5009656;28;20280;-63
2024/02/03 09:58:03;;;;;;;3.60;3.20;;;13.10;65.40;;;;;;5010092;28;20447;-62
2024/02/03 10:00:29;;;;;;;4.60;3.40;;;13.00;65.30;;;;;;5011350;28;20480;-60
2024/02/03 10:02:54;;;;;;;3.70;3.03;;;12.90;65.50;;;;;;5011148;28;20524;-61
2024/02/03 10:05:30;;;;;;;5.60;3.30;;;12.80;65.60;;;;;;5012387;28;20197;-61
2024/02/03 10:08:05;;;;;;;3.10;2.53;;;12.80;65.90;;;;;;5005146;28;20187;-61
2024/02/03 10:10:32;;;;;;;3.00;2.50;;;12.60;65.60;;;;;;5011079;28;20976;-61
2024/02/03 10:13:08;;;;;;;4.70;2.20;;;12.50;65.40;;;;;;5003580;28;20480;-62
2024/02/03 10:15:35;;;;;;;3.37;2.63;;;12.30;65.10;;;;;;5004852;28;20476;-60
2024/02/03 10:18:00;;;;;;;2.80;2.60;;;12.10;66.20;;;;;;5006198;28;20872;-61
2024/02/03 10:20:29;;;;;;;3.13;2.50;;;12.00;66.40;;;;;;5011695;28;20507;-61
2024/02/03 10:22:55;;;;;;;2.73;2.50;;;11.70;67.30;;;;;;5011167;28;20182;-61
2024/02/03 10:25:31;;;;;;;3.80;2.77;;;12.00;67.20;;;;;;5008178;28;20856;-62
2024/02/03 10:28:05;;;;;;;2.30;2.10;;;12.00;66.90;;;;;;5006395;28;20440;-61
2024/02/03 10:30:31;;;;;;;3.17;2.87;;;12.10;66.50;;;;;;5012327;28;20470;-61
2024/02/03 10:33:02;;;;;;;3.60;3.00;;;12.00;66.60;;;;;;5009048;28;20452;-61
2024/02/03 10:35:28;;;;;;;3.20;2.70;;;12.20;66.90;;;;;;5009212;28;20472;-61
2024/02/03 10:37:57;;;;;;;3.00;2.80;;;12.30;66.60;;;;;;5011246;28;20924;-61
2024/02/03 10:40:30;;;;;;;3.43;3.13;;;12.10;65.90;;;;;;5010857;28;20499;-61
2024/02/03 10:42:57;;;;;;;3.20;2.90;;;12.10;67.40;;;;;;5009085;28;20443;-61
2024/02/03 10:45:30;;;;;;;3.77;3.43;;;12.10;67.10;;;;;;5009867;28;20508;-62
2024/02/03 10:47:58;;;;;;;5.33;3.60;;;12.20;66.70;;;;;;5008191;28;20522;-61
2024/02/03 10:50:44;;;;;;;3.17;2.87;;;12.40;66.30;;;;;;5009239;28;20445;-61
2024/02/03 10:53:25;;;;;;;3.70;3.40;;;12.60;65.80;;;;;;5000685;28;20448;-61
2024/02/03 10:55:56;;;;;;;3.50;3.20;;;12.70;65.10;;;;;;5009052;28;20859;-61
2024/02/03 10:58:31;;;;;;;4.60;4.10;;;12.80;64.40;;;;;;5011225;28;20433;-61
2024/02/03 11:00:59;;;;;;;4.50;3.57;;;12.80;64.90;;;;;;5012019;28;20507;-60
2024/02/03 11:03:29;;;;;;;3.33;3.00;;;13.10;63.90;;;;;;5008534;28;21340;-60
2024/02/03 11:05:55;;;;;;;4.03;3.50;;;13.30;63.00;;;;;;5008509;28;20583;-61
2024/02/03 11:08:21;;;;;;;3.73;3.10;;;13.20;62.20;;;;;;5008037;28;20488;-62
2024/02/03 11:10:51;;;;;;;3.73;3.43;;;13.30;62.10;;;;;;5011898;28;20730;-62
2024/02/03 11:13:21;;;;;;;3.50;3.20;;;13.20;62.40;;;;;;5010025;28;20190;-62
2024/02/03 11:15:47;;;;;;;3.00;2.80;;;13.20;62.30;;;;;;5010936;28;20512;-62
2024/02/03 11:18:14;;;;;;;3.87;3.47;;;13.10;62.50;;;;;;5008216;28;20478;-62
2024/02/03 11:20:40;;;;;;;3.70;3.30;;;13.20;62.50;;;;;;5005677;28;20445;-61
2024/02/03 11:23:13;;;;;;;4.37;3.20;;;13.20;61.90;;;;;;5008026;28;20460;-61
2024/02/03 11:25:47;;;;;;;3.57;3.27;;;13.60;62.10;;;;;;5005553;28;20527;-61
2024/02/03 11:28:13;;;;;;;3.07;2.73;;;14.00;61.10;;;;;;5007818;28;20535;-63
2024/02/03 11:30:39;;;;;;;3.90;2.97;;;14.20;58.80;;;;;;5009164;28;20511;-61
2024/02/03 11:33:08;;;;;;;3.03;2.73;;;14.40;58.50;;;;;;5010420;28;20460;-62
2024/02/03 11:35:35;;;;;;;3.00;2.30;;;14.60;58.40;;;;;;5011028;28;20479;-62
2024/02/03 11:38:09;;;;;;;2.97;2.60;;;14.60;57.10;;;;;;5010050;28;20429;-62
2024/02/03 11:40:45;;;;;;;2.70;2.50;;;14.50;57.30;;;;;;5010628;28;20521;-60
2024/02/03 11:43:13;;;;;;;3.90;3.10;;;14.20;57.80;;;;;;5009940;28;20460;-61
2024/02/03 11:45:48;;;;;;;3.00;2.20;;;14.30;58.30;;;;;;5011143;28;20417;-61
2024/02/03 11:48:14;;;;;;;3.70;3.20;;;14.30;57.80;;;;;;5010084;28;20443;-61
2024/02/03 11:50:40;;;;;;;3.07;2.70;;;14.10;57.90;;;;;;5010671;28;20425;-62
2024/02/03 11:53:06;;;;;;;3.47;2.97;;;14.20;58.10;;;;;;5011181;28;20421;-60
2024/02/03 11:55:32;;;;;;;2.77;2.57;;;14.20;57.90;;;;;;5007744;28;20542;-61
2024/02/03 11:57:58;;;;;;;2.90;2.60;;;14.00;58.00;;;;;;5006855;28;20190;-59
2024/02/03 12:00:24;;;;;;;3.13;2.83;;;14.20;58.20;;;;;;5010339;28;20425;-61
2024/02/03 12:02:49;;;;;;;2.43;2.23;;;14.40;58.20;;;;;;5010500;28;20591;-62
2024/02/03 12:05:16;;;;;;;2.63;2.10;;;14.40;57.70;;;;;;5008965;28;20543;-62
2024/02/03 12:07:41;;;;;;;4.97;2.53;;;14.50;57.20;;;;;;5008558;28;20267;-62
2024/02/03 12:10:09;;;;;;;4.07;1.93;;;14.60;57.10;;;;;;5007058;28;20840;-62
2024/02/03 12:12:37;;;;;;;1.40;1.30;;;14.80;56.60;;;;;;5007903;28;20327;-62
2024/02/03 12:15:06;;;;;;;1.57;1.40;;;14.70;56.50;;;;;;5010540;28;20471;-61
2024/02/03 12:17:33;;;;;;;1.40;1.00;;;14.40;56.60;;;;;;5007318;28;20460;-62
2024/02/03 12:19:59;;;;;;;1.90;0.87;;;14.60;56.80;;;;;;5006271;28;20448;-60
2024/02/03 12:22:25;;;;;;;0.80;0.80;;;14.50;56.30;;;;;;5009403;28;20437;-61
2024/02/03 12:24:51;;;;;;;1.00;0.90;;;14.40;56.30;;;;;;5009135;28;20182;-63
2024/02/03 12:27:17;;;;;;;0.80;0.80;;;14.40;56.80;;;;;;5009012;28;20292;-61
2024/02/03 12:29:42;;;;;;;1.40;1.03;;;14.60;56.70;;;;;;5009824;28;20873;-60
2024/02/03 12:32:08;;;;;;;0.80;0.80;;;14.80;56.90;;;;;;5009945;28;20668;-61
2024/02/03 12:34:33;;;;;;;0.73;0.70;;;14.90;56.10;;;;;;5009241;28;20296;-61
2024/02/03 12:36:59;;;;;;;1.90;0.80;;;15.00;55.90;;;;;;5008927;28;20264;-60
2024/02/03 12:39:25;;;;;;;0.60;0.60;;;14.80;55.60;;;;;;5009909;28;20193;-62
2024/02/03 12:41:50;;;;;;;1.80;1.00;;;14.80;56.00;;;;;;5009739;28;20723;-61
2024/02/03 12:44:16;;;;;;;0.83;0.83;;;14.90;56.00;;;;;;5010046;28;20232;-61